sensor_id;sensor_type;location;lat;lon;timestamp;P1;durP1;ratioP1;P2;durP2;ratioP2
80926;SDS011;70385;44.538;18.532;2023-06-24T00:01:30;10.35;;;3.80;;
80926;SDS011;70385;44.538;18.532;2023-06-24T00:03:57;10.98;;;4.20;;
80926;SDS011;70385;44.538;18.532;2023-06-24T00:06:23;11.77;;;4.28;;
80926;SDS011;70385;44.538;18.532;2023-06-24T00:08:51;14.05;;;5.13;;
80926;SDS011;70385;44.538;18.532;2023-06-24T00:11:26;8.10;;;4.10;;
80926;SDS011;70385;44.538;18.532;2023-06-24T00:13:56;10.10;;;4.85;;
80926;SDS011;70385;44.538;18.532;2023-06-24T00:16:21;10.75;;;5.78;;
80926;SDS011;70385;44.538;18.532;2023-06-24T00:18:57;10.38;;;4.90;;
80926;SDS011;70385;44.538;18.532;2023-06-24T00:21:24;12.50;;;4.85;;
80926;SDS011;70385;44.538;18.532;2023-06-24T00:24:00;9.13;;;4.38;;
80926;SDS011;70385;44.538;18.532;2023-06-24T00:26:34;13.02;;;5.07;;
80926;SDS011;70385;44.538;18.532;2023-06-24T00:28:59;13.20;;;4.63;;
80926;SDS011;70385;44.538;18.532;2023-06-24T00:31:26;8.85;;;4.53;;
80926;SDS011;70385;44.538;18.532;2023-06-24T00:33:53;8.82;;;4.00;;
80926;SDS011;70385;44.538;18.532;2023-06-24T00:36:20;9.63;;;4.28;;
80926;SDS011;70385;44.538;18.532;2023-06-24T00:38:46;11.68;;;4.45;;
80926;SDS011;70385;44.538;18.532;2023-06-24T00:41:14;13.25;;;4.30;;
80926;SDS011;70385;44.538;18.532;2023-06-24T00:43:43;10.82;;;4.70;;
80926;SDS011;70385;44.538;18.532;2023-06-24T00:46:10;12.13;;;4.53;;
80926;SDS011;70385;44.538;18.532;2023-06-24T00:48:37;9.05;;;4.85;;
80926;SDS011;70385;44.538;18.532;2023-06-24T00:51:03;17.40;;;5.03;;
80926;SDS011;70385;44.538;18.532;2023-06-24T00:53:30;8.95;;;4.10;;
80926;SDS011;70385;44.538;18.532;2023-06-24T00:55:55;10.45;;;5.35;;
80926;SDS011;70385;44.538;18.532;2023-06-24T00:58:27;14.75;;;4.45;;
80926;SDS011;70385;44.538;18.532;2023-06-24T01:00:55;7.57;;;4.63;;
80926;SDS011;70385;44.538;18.532;2023-06-24T01:03:23;12.80;;;4.35;;
80926;SDS011;70385;44.538;18.532;2023-06-24T01:05:50;9.13;;;4.75;;
80926;SDS011;70385;44.538;18.532;2023-06-24T01:08:17;9.40;;;4.43;;
80926;SDS011;70385;44.538;18.532;2023-06-24T01:10:44;6.45;;;4.28;;
80926;SDS011;70385;44.538;18.532;2023-06-24T01:13:11;9.75;;;4.57;;
80926;SDS011;70385;44.538;18.532;2023-06-24T01:15:38;7.82;;;4.70;;
80926;SDS011;70385;44.538;18.532;2023-06-24T01:21:06;12.85;;;4.57;;
80926;SDS011;70385;44.538;18.532;2023-06-24T01:29:01;7.68;;;4.55;;
80926;SDS011;70385;44.538;18.532;2023-06-24T01:34:48;10.77;;;4.75;;
80926;SDS011;70385;44.538;18.532;2023-06-24T01:37:35;14.68;;;4.75;;
80926;SDS011;70385;44.538;18.532;2023-06-24T01:40:10;10.43;;;4.10;;
80926;SDS011;70385;44.538;18.532;2023-06-24T01:42:41;7.50;;;3.83;;
80926;SDS011;70385;44.538;18.532;2023-06-24T01:45:28;9.82;;;4.07;;
80926;SDS011;70385;44.538;18.532;2023-06-24T01:48:02;9.43;;;4.82;;
80926;SDS011;70385;44.538;18.532;2023-06-24T01:50:42;9.05;;;4.10;;
80926;SDS011;70385;44.538;18.532;2023-06-24T01:53:16;7.88;;;3.97;;
80926;SDS011;70385;44.538;18.532;2023-06-24T01:55:46;12.82;;;4.60;;
80926;SDS011;70385;44.538;18.532;2023-06-24T01:58:16;10.68;;;4.45;;
80926;SDS011;70385;44.538;18.532;2023-06-24T02:00:45;12.07;;;4.97;;
80926;SDS011;70385;44.538;18.532;2023-06-24T02:03:16;10.40;;;4.28;;
80926;SDS011;70385;44.538;18.532;2023-06-24T02:05:44;11.13;;;4.50;;
80926;SDS011;70385;44.538;18.532;2023-06-24T02:08:12;12.52;;;4.38;;
80926;SDS011;70385;44.538;18.532;2023-06-24T02:10:40;11.48;;;4.30;;
80926;SDS011;70385;44.538;18.532;2023-06-24T02:13:09;11.48;;;4.05;;
80926;SDS011;70385;44.538;18.532;2023-06-24T02:15:38;11.00;;;4.30;;
80926;SDS011;70385;44.538;18.532;2023-06-24T02:18:05;8.77;;;4.65;;
80926;SDS011;70385;44.538;18.532;2023-06-24T02:20:35;8.27;;;4.32;;
80926;SDS011;70385;44.538;18.532;2023-06-24T02:23:04;11.80;;;5.32;;
80926;SDS011;70385;44.538;18.532;2023-06-24T02:25:33;12.23;;;6.28;;
80926;SDS011;70385;44.538;18.532;2023-06-24T02:28:00;15.07;;;7.18;;
80926;SDS011;70385;44.538;18.532;2023-06-24T02:30:27;13.68;;;6.47;;
80926;SDS011;70385;44.538;18.532;2023-06-24T02:32:54;20.67;;;7.32;;
80926;SDS011;70385;44.538;18.532;2023-06-24T02:35:20;11.35;;;6.63;;
80926;SDS011;70385;44.538;18.532;2023-06-24T02:37:46;18.20;;;7.70;;
80926;SDS011;70385;44.538;18.532;2023-06-24T02:40:11;15.15;;;8.57;;
80926;SDS011;70385;44.538;18.532;2023-06-24T02:42:38;20.70;;;9.35;;
80926;SDS011;70385;44.538;18.532;2023-06-24T02:45:04;20.42;;;8.02;;
80926;SDS011;70385;44.538;18.532;2023-06-24T02:47:31;17.77;;;6.25;;
80926;SDS011;70385;44.538;18.532;2023-06-24T02:49:59;19.65;;;6.40;;
80926;SDS011;70385;44.538;18.532;2023-06-24T02:52:25;11.60;;;6.13;;
80926;SDS011;70385;44.538;18.532;2023-06-24T02:54:55;13.02;;;5.32;;
80926;SDS011;70385;44.538;18.532;2023-06-24T02:57:41;12.43;;;4.47;;
80926;SDS011;70385;44.538;18.532;2023-06-24T03:00:37;9.00;;;5.03;;
80926;SDS011;70385;44.538;18.532;2023-06-24T03:03:09;11.05;;;5.45;;
80926;SDS011;70385;44.538;18.532;2023-06-24T03:05:50;15.18;;;4.78;;
80926;SDS011;70385;44.538;18.532;2023-06-24T03:08:19;13.60;;;5.22;;
80926;SDS011;70385;44.538;18.532;2023-06-24T03:10:49;9.52;;;4.80;;
80926;SDS011;70385;44.538;18.532;2023-06-24T03:13:19;12.27;;;4.65;;
80926;SDS011;70385;44.538;18.532;2023-06-24T03:15:51;12.00;;;6.75;;
80926;SDS011;70385;44.538;18.532;2023-06-24T03:18:17;10.23;;;5.60;;
80926;SDS011;70385;44.538;18.532;2023-06-24T03:20:46;11.88;;;5.45;;
80926;SDS011;70385;44.538;18.532;2023-06-24T03:23:16;7.93;;;4.35;;
80926;SDS011;70385;44.538;18.532;2023-06-24T03:25:43;12.30;;;4.68;;
80926;SDS011;70385;44.538;18.532;2023-06-24T03:28:09;9.75;;;4.70;;
80926;SDS011;70385;44.538;18.532;2023-06-24T03:30:43;15.48;;;5.45;;
80926;SDS011;70385;44.538;18.532;2023-06-24T03:33:16;13.35;;;5.03;;
80926;SDS011;70385;44.538;18.532;2023-06-24T03:35:44;9.18;;;4.32;;
80926;SDS011;70385;44.538;18.532;2023-06-24T03:38:13;9.43;;;5.20;;
80926;SDS011;70385;44.538;18.532;2023-06-24T03:40:40;13.98;;;5.13;;
80926;SDS011;70385;44.538;18.532;2023-06-24T03:43:06;9.68;;;5.05;;
80926;SDS011;70385;44.538;18.532;2023-06-24T03:45:33;8.48;;;4.97;;
80926;SDS011;70385;44.538;18.532;2023-06-24T03:48:03;9.23;;;4.75;;
80926;SDS011;70385;44.538;18.532;2023-06-24T03:50:30;11.75;;;5.90;;
80926;SDS011;70385;44.538;18.532;2023-06-24T03:52:58;9.13;;;5.10;;
80926;SDS011;70385;44.538;18.532;2023-06-24T03:55:25;10.55;;;5.35;;
80926;SDS011;70385;44.538;18.532;2023-06-24T03:57:50;15.93;;;7.75;;
80926;SDS011;70385;44.538;18.532;2023-06-24T04:00:17;16.95;;;7.18;;
80926;SDS011;70385;44.538;18.532;2023-06-24T04:02:46;23.52;;;9.32;;
80926;SDS011;70385;44.538;18.532;2023-06-24T04:05:13;24.15;;;10.05;;
80926;SDS011;70385;44.538;18.532;2023-06-24T04:07:41;24.98;;;11.40;;
80926;SDS011;70385;44.538;18.532;2023-06-24T04:10:13;33.70;;;12.55;;
80926;SDS011;70385;44.538;18.532;2023-06-24T04:12:43;28.95;;;11.57;;
80926;SDS011;70385;44.538;18.532;2023-06-24T04:15:10;18.35;;;7.90;;
80926;SDS011;70385;44.538;18.532;2023-06-24T04:17:38;13.85;;;7.00;;
80926;SDS011;70385;44.538;18.532;2023-06-24T04:20:05;14.20;;;6.00;;
80926;SDS011;70385;44.538;18.532;2023-06-24T04:22:37;9.23;;;6.13;;
80926;SDS011;70385;44.538;18.532;2023-06-24T04:25:08;10.60;;;5.38;;
80926;SDS011;70385;44.538;18.532;2023-06-24T04:27:35;8.70;;;5.65;;
80926;SDS011;70385;44.538;18.532;2023-06-24T04:30:04;10.57;;;4.90;;
80926;SDS011;70385;44.538;18.532;2023-06-24T04:32:30;6.82;;;4.57;;
80926;SDS011;70385;44.538;18.532;2023-06-24T04:34:58;10.90;;;4.63;;
80926;SDS011;70385;44.538;18.532;2023-06-24T04:37:28;11.38;;;6.13;;
80926;SDS011;70385;44.538;18.532;2023-06-24T04:39:55;11.68;;;5.65;;
80926;SDS011;70385;44.538;18.532;2023-06-24T04:42:22;9.60;;;4.53;;
80926;SDS011;70385;44.538;18.532;2023-06-24T04:44:49;6.60;;;3.78;;
80926;SDS011;70385;44.538;18.532;2023-06-24T04:47:20;9.88;;;3.80;;
80926;SDS011;70385;44.538;18.532;2023-06-24T04:49:46;13.25;;;4.45;;
80926;SDS011;70385;44.538;18.532;2023-06-24T04:52:12;8.82;;;4.18;;
80926;SDS011;70385;44.538;18.532;2023-06-24T04:54:38;9.95;;;3.53;;
80926;SDS011;70385;44.538;18.532;2023-06-24T04:57:06;9.25;;;5.25;;
80926;SDS011;70385;44.538;18.532;2023-06-24T04:59:34;15.75;;;4.90;;
80926;SDS011;70385;44.538;18.532;2023-06-24T05:02:00;12.98;;;5.95;;
80926;SDS011;70385;44.538;18.532;2023-06-24T05:04:26;13.45;;;5.75;;
80926;SDS011;70385;44.538;18.532;2023-06-24T05:06:53;9.27;;;4.55;;
80926;SDS011;70385;44.538;18.532;2023-06-24T05:09:19;9.38;;;4.05;;
80926;SDS011;70385;44.538;18.532;2023-06-24T05:11:45;6.65;;;3.83;;
80926;SDS011;70385;44.538;18.532;2023-06-24T05:14:11;8.00;;;3.92;;
80926;SDS011;70385;44.538;18.532;2023-06-24T05:16:37;4.97;;;3.13;;
80926;SDS011;70385;44.538;18.532;2023-06-24T05:19:03;6.80;;;3.38;;
80926;SDS011;70385;44.538;18.532;2023-06-24T05:21:29;6.10;;;3.63;;
80926;SDS011;70385;44.538;18.532;2023-06-24T05:23:55;5.60;;;3.33;;
80926;SDS011;70385;44.538;18.532;2023-06-24T05:26:21;7.13;;;4.00;;
80926;SDS011;70385;44.538;18.532;2023-06-24T05:28:49;7.78;;;3.25;;
80926;SDS011;70385;44.538;18.532;2023-06-24T05:31:16;9.38;;;3.92;;
80926;SDS011;70385;44.538;18.532;2023-06-24T05:33:42;3.53;;;2.90;;
80926;SDS011;70385;44.538;18.532;2023-06-24T05:36:08;7.97;;;3.72;;
80926;SDS011;70385;44.538;18.532;2023-06-24T05:38:34;8.23;;;3.72;;
80926;SDS011;70385;44.538;18.532;2023-06-24T05:41:01;7.18;;;4.13;;
80926;SDS011;70385;44.538;18.532;2023-06-24T05:43:28;10.70;;;5.45;;
80926;SDS011;70385;44.538;18.532;2023-06-24T05:45:54;17.52;;;7.20;;
80926;SDS011;70385;44.538;18.532;2023-06-24T05:48:20;22.88;;;8.25;;
80926;SDS011;70385;44.538;18.532;2023-06-24T05:50:46;26.20;;;9.18;;
80926;SDS011;70385;44.538;18.532;2023-06-24T05:53:14;23.73;;;9.13;;
80926;SDS011;70385;44.538;18.532;2023-06-24T05:55:40;33.83;;;11.30;;
80926;SDS011;70385;44.538;18.532;2023-06-24T05:58:06;28.90;;;10.25;;
80926;SDS011;70385;44.538;18.532;2023-06-24T06:00:38;45.80;;;14.63;;
80926;SDS011;70385;44.538;18.532;2023-06-24T06:03:19;17.35;;;6.93;;
80926;SDS011;70385;44.538;18.532;2023-06-24T06:05:45;14.63;;;6.22;;
80926;SDS011;70385;44.538;18.532;2023-06-24T06:08:12;15.90;;;5.00;;
80926;SDS011;70385;44.538;18.532;2023-06-24T06:10:52;12.68;;;6.43;;
80926;SDS011;70385;44.538;18.532;2023-06-24T06:13:31;20.20;;;7.70;;
80926;SDS011;70385;44.538;18.532;2023-06-24T06:16:07;10.18;;;3.70;;
80926;SDS011;70385;44.538;18.532;2023-06-24T06:18:39;10.48;;;4.20;;
80926;SDS011;70385;44.538;18.532;2023-06-24T06:21:28;9.25;;;4.00;;
80926;SDS011;70385;44.538;18.532;2023-06-24T06:23:59;10.27;;;3.70;;
80926;SDS011;70385;44.538;18.532;2023-06-24T06:26:34;8.40;;;2.88;;
80926;SDS011;70385;44.538;18.532;2023-06-24T06:29:54;11.40;;;4.93;;
80926;SDS011;70385;44.538;18.532;2023-06-24T06:32:28;10.98;;;6.10;;
80926;SDS011;70385;44.538;18.532;2023-06-24T06:34:53;18.70;;;9.30;;
80926;SDS011;70385;44.538;18.532;2023-06-24T06:37:20;14.20;;;7.45;;
80926;SDS011;70385;44.538;18.532;2023-06-24T06:39:55;12.65;;;6.70;;
80926;SDS011;70385;44.538;18.532;2023-06-24T06:42:30;18.02;;;8.05;;
80926;SDS011;70385;44.538;18.532;2023-06-24T06:45:14;12.20;;;6.22;;
80926;SDS011;70385;44.538;18.532;2023-06-24T06:47:40;15.50;;;6.30;;
80926;SDS011;70385;44.538;18.532;2023-06-24T06:50:06;15.43;;;6.55;;
80926;SDS011;70385;44.538;18.532;2023-06-24T06:52:38;13.00;;;5.97;;
80926;SDS011;70385;44.538;18.532;2023-06-24T06:55:13;13.52;;;6.95;;
80926;SDS011;70385;44.538;18.532;2023-06-24T06:57:48;8.15;;;4.70;;
80926;SDS011;70385;44.538;18.532;2023-06-24T07:00:22;6.57;;;3.92;;
80926;SDS011;70385;44.538;18.532;2023-06-24T07:02:53;9.93;;;4.55;;
80926;SDS011;70385;44.538;18.532;2023-06-24T07:11:29;7.72;;;4.63;;
80926;SDS011;70385;44.538;18.532;2023-06-24T07:13:59;10.25;;;6.05;;
80926;SDS011;70385;44.538;18.532;2023-06-24T07:16:42;10.85;;;6.57;;
80926;SDS011;70385;44.538;18.532;2023-06-24T07:19:08;10.88;;;6.30;;
80926;SDS011;70385;44.538;18.532;2023-06-24T07:21:45;15.35;;;7.03;;
80926;SDS011;70385;44.538;18.532;2023-06-24T07:24:15;7.60;;;5.22;;
80926;SDS011;70385;44.538;18.532;2023-06-24T07:26:42;12.23;;;5.50;;
80926;SDS011;70385;44.538;18.532;2023-06-24T07:34:05;15.23;;;7.53;;
80926;SDS011;70385;44.538;18.532;2023-06-24T07:36:31;15.88;;;8.15;;
80926;SDS011;70385;44.538;18.532;2023-06-24T07:45:48;9.20;;;5.22;;
80926;SDS011;70385;44.538;18.532;2023-06-24T07:48:42;22.90;;;9.05;;
80926;SDS011;70385;44.538;18.532;2023-06-24T07:51:14;25.00;;;11.65;;
80926;SDS011;70385;44.538;18.532;2023-06-24T07:53:43;14.63;;;7.35;;
80926;SDS011;70385;44.538;18.532;2023-06-24T07:56:15;9.75;;;5.50;;
80926;SDS011;70385;44.538;18.532;2023-06-24T07:58:41;9.15;;;4.20;;
80926;SDS011;70385;44.538;18.532;2023-06-24T08:01:08;5.95;;;4.43;;
80926;SDS011;70385;44.538;18.532;2023-06-24T08:03:35;8.40;;;4.90;;
80926;SDS011;70385;44.538;18.532;2023-06-24T08:06:03;8.90;;;5.15;;
80926;SDS011;70385;44.538;18.532;2023-06-24T08:08:32;12.63;;;4.70;;
80926;SDS011;70385;44.538;18.532;2023-06-24T08:11:11;6.72;;;4.55;;
80926;SDS011;70385;44.538;18.532;2023-06-24T08:14:01;7.10;;;4.45;;
80926;SDS011;70385;44.538;18.532;2023-06-24T08:19:09;14.05;;;5.50;;
80926;SDS011;70385;44.538;18.532;2023-06-24T08:21:35;12.68;;;5.90;;
80926;SDS011;70385;44.538;18.532;2023-06-24T08:24:04;10.40;;;6.25;;
80926;SDS011;70385;44.538;18.532;2023-06-24T08:26:34;10.20;;;6.05;;
80926;SDS011;70385;44.538;18.532;2023-06-24T08:29:00;18.77;;;9.82;;
80926;SDS011;70385;44.538;18.532;2023-06-24T08:31:28;21.67;;;10.80;;
80926;SDS011;70385;44.538;18.532;2023-06-24T08:34:01;28.17;;;12.15;;
80926;SDS011;70385;44.538;18.532;2023-06-24T08:36:28;17.08;;;9.07;;
80926;SDS011;70385;44.538;18.532;2023-06-24T08:38:55;14.60;;;6.85;;
80926;SDS011;70385;44.538;18.532;2023-06-24T08:42:16;8.07;;;4.95;;
80926;SDS011;70385;44.538;18.532;2023-06-24T08:44:42;5.88;;;4.10;;
80926;SDS011;70385;44.538;18.532;2023-06-24T08:47:13;8.80;;;4.93;;
80926;SDS011;70385;44.538;18.532;2023-06-24T08:49:47;8.70;;;4.30;;
80926;SDS011;70385;44.538;18.532;2023-06-24T08:52:21;6.88;;;4.38;;
80926;SDS011;70385;44.538;18.532;2023-06-24T08:54:52;6.05;;;4.05;;
80926;SDS011;70385;44.538;18.532;2023-06-24T08:57:20;5.78;;;3.53;;
80926;SDS011;70385;44.538;18.532;2023-06-24T08:59:46;5.07;;;3.67;;
80926;SDS011;70385;44.538;18.532;2023-06-24T09:02:13;6.18;;;3.60;;
80926;SDS011;70385;44.538;18.532;2023-06-24T09:04:39;4.85;;;3.28;;
80926;SDS011;70385;44.538;18.532;2023-06-24T09:07:06;5.95;;;3.42;;
80926;SDS011;70385;44.538;18.532;2023-06-24T09:09:32;4.03;;;3.55;;
80926;SDS011;70385;44.538;18.532;2023-06-24T09:11:59;5.03;;;3.30;;
80926;SDS011;70385;44.538;18.532;2023-06-24T09:14:28;5.53;;;3.88;;
80926;SDS011;70385;44.538;18.532;2023-06-24T09:16:56;4.53;;;3.60;;
80926;SDS011;70385;44.538;18.532;2023-06-24T09:19:27;7.20;;;3.95;;
80926;SDS011;70385;44.538;18.532;2023-06-24T09:22:07;6.72;;;4.22;;
80926;SDS011;70385;44.538;18.532;2023-06-24T09:24:41;8.02;;;4.82;;
80926;SDS011;70385;44.538;18.532;2023-06-24T09:27:13;8.93;;;4.00;;
80926;SDS011;70385;44.538;18.532;2023-06-24T09:29:48;6.30;;;3.72;;
80926;SDS011;70385;44.538;18.532;2023-06-24T09:32:14;5.85;;;3.90;;
80926;SDS011;70385;44.538;18.532;2023-06-24T09:34:43;4.90;;;3.20;;
80926;SDS011;70385;44.538;18.532;2023-06-24T09:37:09;7.50;;;3.78;;
80926;SDS011;70385;44.538;18.532;2023-06-24T09:39:37;8.07;;;4.00;;
80926;SDS011;70385;44.538;18.532;2023-06-24T09:42:05;4.63;;;3.33;;
80926;SDS011;70385;44.538;18.532;2023-06-24T09:44:33;4.13;;;3.40;;
80926;SDS011;70385;44.538;18.532;2023-06-24T09:46:59;6.55;;;3.72;;
80926;SDS011;70385;44.538;18.532;2023-06-24T09:49:26;4.65;;;3.53;;
80926;SDS011;70385;44.538;18.532;2023-06-24T09:51:55;5.40;;;3.53;;
80926;SDS011;70385;44.538;18.532;2023-06-24T09:54:24;8.27;;;3.65;;
80926;SDS011;70385;44.538;18.532;2023-06-24T09:56:52;6.15;;;3.22;;
80926;SDS011;70385;44.538;18.532;2023-06-24T09:59:20;4.63;;;3.53;;
80926;SDS011;70385;44.538;18.532;2023-06-24T10:01:48;3.75;;;3.17;;
80926;SDS011;70385;44.538;18.532;2023-06-24T10:04:18;8.60;;;3.35;;
80926;SDS011;70385;44.538;18.532;2023-06-24T10:06:49;4.38;;;2.95;;
80926;SDS011;70385;44.538;18.532;2023-06-24T10:09:16;4.68;;;3.35;;
80926;SDS011;70385;44.538;18.532;2023-06-24T10:11:45;7.00;;;3.55;;
80926;SDS011;70385;44.538;18.532;2023-06-24T10:14:12;4.28;;;3.72;;
80926;SDS011;70385;44.538;18.532;2023-06-24T10:16:40;4.47;;;3.45;;
80926;SDS011;70385;44.538;18.532;2023-06-24T10:19:08;6.60;;;3.50;;
80926;SDS011;70385;44.538;18.532;2023-06-24T10:21:53;4.78;;;3.63;;
80926;SDS011;70385;44.538;18.532;2023-06-24T10:24:40;4.93;;;3.33;;
80926;SDS011;70385;44.538;18.532;2023-06-24T10:27:18;6.18;;;3.83;;
80926;SDS011;70385;44.538;18.532;2023-06-24T10:29:52;6.80;;;3.95;;
80926;SDS011;70385;44.538;18.532;2023-06-24T10:32:22;7.45;;;3.35;;
80926;SDS011;70385;44.538;18.532;2023-06-24T10:34:58;4.28;;;2.95;;
80926;SDS011;70385;44.538;18.532;2023-06-24T10:37:26;8.00;;;3.53;;
80926;SDS011;70385;44.538;18.532;2023-06-24T10:40:10;8.40;;;3.30;;
80926;SDS011;70385;44.538;18.532;2023-06-24T10:42:41;5.15;;;3.70;;
80926;SDS011;70385;44.538;18.532;2023-06-24T10:47:42;4.55;;;3.40;;
80926;SDS011;70385;44.538;18.532;2023-06-24T10:50:11;6.32;;;3.40;;
80926;SDS011;70385;44.538;18.532;2023-06-24T10:52:48;4.65;;;3.00;;
80926;SDS011;70385;44.538;18.532;2023-06-24T10:55:18;6.28;;;3.45;;
80926;SDS011;70385;44.538;18.532;2023-06-24T10:57:49;5.25;;;3.55;;
80926;SDS011;70385;44.538;18.532;2023-06-24T11:00:19;5.10;;;3.03;;
80926;SDS011;70385;44.538;18.532;2023-06-24T11:02:47;3.50;;;2.72;;
80926;SDS011;70385;44.538;18.532;2023-06-24T11:05:26;4.15;;;3.38;;
80926;SDS011;70385;44.538;18.532;2023-06-24T11:08:28;5.38;;;2.83;;
80926;SDS011;70385;44.538;18.532;2023-06-24T11:10:54;3.75;;;3.08;;
80926;SDS011;70385;44.538;18.532;2023-06-24T11:13:20;4.05;;;3.03;;
80926;SDS011;70385;44.538;18.532;2023-06-24T11:15:46;3.70;;;2.60;;
80926;SDS011;70385;44.538;18.532;2023-06-24T11:18:15;5.80;;;2.70;;
80926;SDS011;70385;44.538;18.532;2023-06-24T11:20:41;4.10;;;2.70;;
80926;SDS011;70385;44.538;18.532;2023-06-24T11:23:09;4.82;;;2.88;;
80926;SDS011;70385;44.538;18.532;2023-06-24T11:25:40;3.50;;;2.42;;
80926;SDS011;70385;44.538;18.532;2023-06-24T11:28:17;5.03;;;2.63;;
80926;SDS011;70385;44.538;18.532;2023-06-24T11:30:44;7.40;;;2.63;;
80926;SDS011;70385;44.538;18.532;2023-06-24T11:33:10;3.15;;;2.53;;
80926;SDS011;70385;44.538;18.532;2023-06-24T11:35:36;2.95;;;2.63;;
80926;SDS011;70385;44.538;18.532;2023-06-24T11:38:02;4.50;;;2.70;;
80926;SDS011;70385;44.538;18.532;2023-06-24T11:40:31;4.78;;;2.72;;
80926;SDS011;70385;44.538;18.532;2023-06-24T11:42:59;4.82;;;2.67;;
80926;SDS011;70385;44.538;18.532;2023-06-24T11:45:26;2.72;;;2.35;;
80926;SDS011;70385;44.538;18.532;2023-06-24T11:47:52;4.07;;;2.85;;
80926;SDS011;70385;44.538;18.532;2023-06-24T11:50:18;3.42;;;2.83;;
80926;SDS011;70385;44.538;18.532;2023-06-24T11:52:50;4.28;;;2.70;;
80926;SDS011;70385;44.538;18.532;2023-06-24T11:55:21;5.05;;;2.92;;
80926;SDS011;70385;44.538;18.532;2023-06-24T12:00:20;4.70;;;2.90;;
80926;SDS011;70385;44.538;18.532;2023-06-24T12:02:52;4.25;;;2.90;;
80926;SDS011;70385;44.538;18.532;2023-06-24T12:05:20;4.07;;;2.65;;
80926;SDS011;70385;44.538;18.532;2023-06-24T12:07:59;5.25;;;2.58;;
80926;SDS011;70385;44.538;18.532;2023-06-24T12:10:30;10.63;;;5.30;;
80926;SDS011;70385;44.538;18.532;2023-06-24T12:12:58;9.98;;;5.60;;
80926;SDS011;70385;44.538;18.532;2023-06-24T12:15:26;9.63;;;5.53;;
80926;SDS011;70385;44.538;18.532;2023-06-24T12:17:53;12.05;;;6.10;;
80926;SDS011;70385;44.538;18.532;2023-06-24T12:20:20;11.82;;;6.25;;
80926;SDS011;70385;44.538;18.532;2023-06-24T12:22:46;9.43;;;6.40;;
80926;SDS011;70385;44.538;18.532;2023-06-24T12:25:13;11.38;;;6.75;;
80926;SDS011;70385;44.538;18.532;2023-06-24T12:27:41;15.57;;;7.90;;
80926;SDS011;70385;44.538;18.532;2023-06-24T12:30:09;14.25;;;8.40;;
80926;SDS011;70385;44.538;18.532;2023-06-24T12:32:35;15.93;;;8.45;;
80926;SDS011;70385;44.538;18.532;2023-06-24T12:35:02;15.48;;;9.38;;
80926;SDS011;70385;44.538;18.532;2023-06-24T12:37:32;22.60;;;10.43;;
80926;SDS011;70385;44.538;18.532;2023-06-24T12:40:05;24.15;;;10.57;;
80926;SDS011;70385;44.538;18.532;2023-06-24T12:42:31;21.65;;;10.00;;
80926;SDS011;70385;44.538;18.532;2023-06-24T12:44:57;28.13;;;10.55;;
80926;SDS011;70385;44.538;18.532;2023-06-24T12:47:26;22.85;;;11.38;;
80926;SDS011;70385;44.538;18.532;2023-06-24T12:49:52;21.02;;;9.93;;
80926;SDS011;70385;44.538;18.532;2023-06-24T12:52:19;26.83;;;11.23;;
80926;SDS011;70385;44.538;18.532;2023-06-24T12:54:49;27.50;;;11.27;;
80926;SDS011;70385;44.538;18.532;2023-06-24T12:57:16;17.08;;;7.70;;
80926;SDS011;70385;44.538;18.532;2023-06-24T12:59:42;18.75;;;8.65;;
80926;SDS011;70385;44.538;18.532;2023-06-24T13:02:12;24.75;;;9.40;;
80926;SDS011;70385;44.538;18.532;2023-06-24T13:04:39;20.92;;;9.45;;
80926;SDS011;70385;44.538;18.532;2023-06-24T13:07:07;20.92;;;9.82;;
80926;SDS011;70385;44.538;18.532;2023-06-24T13:09:34;22.38;;;9.15;;
80926;SDS011;70385;44.538;18.532;2023-06-24T13:12:00;20.30;;;9.13;;
80926;SDS011;70385;44.538;18.532;2023-06-24T13:14:26;19.25;;;8.10;;
80926;SDS011;70385;44.538;18.532;2023-06-24T13:16:53;16.88;;;9.82;;
80926;SDS011;70385;44.538;18.532;2023-06-24T13:19:21;15.77;;;9.00;;
80926;SDS011;70385;44.538;18.532;2023-06-24T13:21:46;19.50;;;9.55;;
80926;SDS011;70385;44.538;18.532;2023-06-24T13:24:13;16.38;;;10.27;;
80926;SDS011;70385;44.538;18.532;2023-06-24T13:26:39;16.83;;;10.13;;
80926;SDS011;70385;44.538;18.532;2023-06-24T13:29:05;23.52;;;9.88;;
80926;SDS011;70385;44.538;18.532;2023-06-24T13:31:33;21.58;;;10.70;;
80926;SDS011;70385;44.538;18.532;2023-06-24T13:33:58;21.70;;;11.48;;
80926;SDS011;70385;44.538;18.532;2023-06-24T13:36:34;23.15;;;9.82;;
80926;SDS011;70385;44.538;18.532;2023-06-24T13:39:02;21.65;;;9.88;;
80926;SDS011;70385;44.538;18.532;2023-06-24T13:41:32;19.83;;;10.75;;
80926;SDS011;70385;44.538;18.532;2023-06-24T13:43:59;21.48;;;10.75;;
80926;SDS011;70385;44.538;18.532;2023-06-24T13:46:27;22.38;;;10.80;;
80926;SDS011;70385;44.538;18.532;2023-06-24T13:48:56;23.05;;;11.43;;
80926;SDS011;70385;44.538;18.532;2023-06-24T13:51:22;26.95;;;13.70;;
80926;SDS011;70385;44.538;18.532;2023-06-24T13:53:49;27.73;;;14.00;;
80926;SDS011;70385;44.538;18.532;2023-06-24T13:56:17;31.92;;;15.38;;
80926;SDS011;70385;44.538;18.532;2023-06-24T13:58:44;23.95;;;12.52;;
80926;SDS011;70385;44.538;18.532;2023-06-24T14:01:10;37.45;;;16.65;;
80926;SDS011;70385;44.538;18.532;2023-06-24T14:03:38;30.83;;;16.17;;
80926;SDS011;70385;44.538;18.532;2023-06-24T14:06:04;26.52;;;14.73;;
80926;SDS011;70385;44.538;18.532;2023-06-24T14:08:31;29.67;;;14.85;;
80926;SDS011;70385;44.538;18.532;2023-06-24T14:10:58;34.30;;;14.63;;
80926;SDS011;70385;44.538;18.532;2023-06-24T14:13:26;35.63;;;16.58;;
80926;SDS011;70385;44.538;18.532;2023-06-24T14:15:52;37.90;;;15.50;;
80926;SDS011;70385;44.538;18.532;2023-06-24T14:18:19;46.67;;;15.82;;
80926;SDS011;70385;44.538;18.532;2023-06-24T14:20:44;43.75;;;14.52;;
80926;SDS011;70385;44.538;18.532;2023-06-24T14:23:10;31.13;;;12.88;;
80926;SDS011;70385;44.538;18.532;2023-06-24T14:25:38;26.52;;;12.00;;
80926;SDS011;70385;44.538;18.532;2023-06-24T14:28:04;26.13;;;12.05;;
80926;SDS011;70385;44.538;18.532;2023-06-24T14:30:30;19.88;;;8.75;;
80926;SDS011;70385;44.538;18.532;2023-06-24T14:32:57;15.35;;;7.10;;
80926;SDS011;70385;44.538;18.532;2023-06-24T14:35:23;18.48;;;9.20;;
80926;SDS011;70385;44.538;18.532;2023-06-24T14:37:50;22.58;;;8.90;;
80926;SDS011;70385;44.538;18.532;2023-06-24T14:40:16;14.65;;;8.05;;
80926;SDS011;70385;44.538;18.532;2023-06-24T14:42:42;17.58;;;7.32;;
80926;SDS011;70385;44.538;18.532;2023-06-24T14:45:07;15.23;;;7.25;;
80926;SDS011;70385;44.538;18.532;2023-06-24T14:47:34;11.85;;;5.88;;
80926;SDS011;70385;44.538;18.532;2023-06-24T14:50:03;12.27;;;6.50;;
80926;SDS011;70385;44.538;18.532;2023-06-24T14:52:29;12.27;;;6.63;;
80926;SDS011;70385;44.538;18.532;2023-06-24T14:54:56;14.45;;;6.22;;
80926;SDS011;70385;44.538;18.532;2023-06-24T14:57:23;27.33;;;11.20;;
80926;SDS011;70385;44.538;18.532;2023-06-24T14:59:51;14.75;;;7.25;;
80926;SDS011;70385;44.538;18.532;2023-06-24T15:02:17;20.17;;;8.95;;
80926;SDS011;70385;44.538;18.532;2023-06-24T15:04:45;20.30;;;8.23;;
80926;SDS011;70385;44.538;18.532;2023-06-24T15:07:10;11.70;;;7.03;;
80926;SDS011;70385;44.538;18.532;2023-06-24T15:09:36;13.73;;;6.18;;
80926;SDS011;70385;44.538;18.532;2023-06-24T15:12:02;14.25;;;6.35;;
80926;SDS011;70385;44.538;18.532;2023-06-24T15:14:28;8.90;;;5.50;;
80926;SDS011;70385;44.538;18.532;2023-06-24T15:16:54;8.07;;;5.38;;